CheckWX is a tool to help pilots better visualize weather data.  It is not intended as a substitute for an official pre-flight weather briefing.

02:50:19 UTC

KPDX TAF
Portland International Airport
Portland, Oregon, USA
KPDX 202324Z 2100/2124 VRB03KT P6SM SCT025 BKN040 FM210200 VRB03KT P6SM SCT050 FM211200 36002KT P6SM OVC015 FM211900 32003KT P6SM OVC050

Sep-21@
00:00 UTC

Sep-21 @ 00:00 UTC

Sep-21@
02:00 UTC

Sep-21 @ 02:00 UTC

KPDX 202324Z 2100/2124 VRB03KT P6SM SCT025 BKN040

Expired

Wind
  • Variable at 3 KTS
Cloud Levels
  • Scattered at 2,500' AGL
  • Broken at 4,000' AGL

Sep-21@
02:00 UTC

Sep-21 @ 02:00 UTC

Sep-21@
12:00 UTC

Sep-21 @ 12:00 UTC

FM210200 VRB03KT P6SM SCT050

From

From Standard forecast or significant change

Wind
  • Variable at 3 KTS
Cloud Levels
  • Scattered at 5,000' AGL

Sep-21@
12:00 UTC

Sep-21 @ 12:00 UTC

Sep-21@
19:00 UTC

Sep-21 @ 19:00 UTC

FM211200 36002KT P6SM OVC015

From

From Standard forecast or significant change

Wind
  • 360° at 2 KTS
Cloud Levels
  • Overcast at 1,500' AGL

Sep-21@
19:00 UTC

Sep-21 @ 19:00 UTC

Sep-22@
00:00 UTC

Sep-22 @ 00:00 UTC

FM211900 32003KT P6SM OVC050

From

From Standard forecast or significant change

Wind
  • 320° at 3 KTS
Cloud Levels
  • Overcast at 5,000' AGL